sensor_id;sensor_type;location;lat;lon;timestamp;pressure;altitude;pressure_sealevel;temperature;humidity
15272;BME280;7737;51.578;7.268;2022-12-18T00:00:00;102468.75;;;-8.79;100.00
15272;BME280;7737;51.578;7.268;2022-12-18T00:02:26;102468.38;;;-8.71;100.00
15272;BME280;7737;51.578;7.268;2022-12-18T00:04:53;102467.66;;;-8.68;100.00
15272;BME280;7737;51.578;7.268;2022-12-18T00:07:19;102475.00;;;-9.05;100.00
15272;BME280;7737;51.578;7.268;2022-12-18T00:09:46;102481.19;;;-8.87;100.00
15272;BME280;7737;51.578;7.268;2022-12-18T00:12:12;102482.66;;;-9.06;100.00
15272;BME280;7737;51.578;7.268;2022-12-18T00:14:40;102483.44;;;-8.93;100.00
15272;BME280;7737;51.578;7.268;2022-12-18T00:17:07;102494.53;;;-8.94;100.00
15272;BME280;7737;51.578;7.268;2022-12-18T00:19:33;102481.00;;;-8.75;100.00
15272;BME280;7737;51.578;7.268;2022-12-18T00:21:59;102478.91;;;-8.82;100.00
15272;BME280;7737;51.578;7.268;2022-12-18T00:24:26;102484.91;;;-8.67;100.00
15272;BME280;7737;51.578;7.268;2022-12-18T00:26:52;102488.88;;;-9.03;100.00
15272;BME280;7737;51.578;7.268;2022-12-18T00:29:19;102479.91;;;-8.64;100.00
15272;BME280;7737;51.578;7.268;2022-12-18T00:31:47;102461.34;;;-8.58;100.00
15272;BME280;7737;51.578;7.268;2022-12-18T00:34:14;102464.53;;;-8.32;100.00
15272;BME280;7737;51.578;7.268;2022-12-18T00:36:41;102470.53;;;-8.78;100.00
15272;BME280;7737;51.578;7.268;2022-12-18T00:39:07;102468.34;;;-9.01;100.00
15272;BME280;7737;51.578;7.268;2022-12-18T00:41:34;102479.41;;;-8.73;100.00
15272;BME280;7737;51.578;7.268;2022-12-18T00:44:19;102476.03;;;-8.87;100.00
15272;BME280;7737;51.578;7.268;2022-12-18T00:46:47;102472.66;;;-8.71;100.00
15272;BME280;7737;51.578;7.268;2022-12-18T00:49:15;102482.63;;;-8.92;100.00
15272;BME280;7737;51.578;7.268;2022-12-18T00:51:42;102480.88;;;-8.93;100.00
15272;BME280;7737;51.578;7.268;2022-12-18T00:54:08;102487.25;;;-9.30;100.00
15272;BME280;7737;51.578;7.268;2022-12-18T00:56:36;102492.41;;;-9.15;100.00
15272;BME280;7737;51.578;7.268;2022-12-18T00:59:03;102490.09;;;-9.25;100.00
15272;BME280;7737;51.578;7.268;2022-12-18T01:01:29;102497.38;;;-9.48;100.00
15272;BME280;7737;51.578;7.268;2022-12-18T01:03:57;102502.34;;;-9.07;100.00
15272;BME280;7737;51.578;7.268;2022-12-18T01:06:24;102499.94;;;-9.18;100.00
15272;BME280;7737;51.578;7.268;2022-12-18T01:08:50;102481.94;;;-9.04;100.00
15272;BME280;7737;51.578;7.268;2022-12-18T01:11:18;102480.75;;;-8.94;100.00
15272;BME280;7737;51.578;7.268;2022-12-18T01:13:45;102488.13;;;-8.86;100.00
15272;BME280;7737;51.578;7.268;2022-12-18T01:16:13;102486.41;;;-8.71;100.00
15272;BME280;7737;51.578;7.268;2022-12-18T01:18:40;102486.44;;;-8.85;100.00
15272;BME280;7737;51.578;7.268;2022-12-18T01:21:09;102481.19;;;-8.72;100.00
15272;BME280;7737;51.578;7.268;2022-12-18T01:23:36;102465.34;;;-8.63;100.00
15272;BME280;7737;51.578;7.268;2022-12-18T01:26:04;102469.66;;;-8.48;100.00
15272;BME280;7737;51.578;7.268;2022-12-18T01:28:31;102479.75;;;-8.67;100.00
15272;BME280;7737;51.578;7.268;2022-12-18T01:31:12;102486.66;;;-9.11;100.00
15272;BME280;7737;51.578;7.268;2022-12-18T01:33:39;102497.22;;;-9.21;100.00
15272;BME280;7737;51.578;7.268;2022-12-18T01:36:05;102485.94;;;-9.09;100.00
15272;BME280;7737;51.578;7.268;2022-12-18T01:38:33;102487.38;;;-9.14;100.00
15272;BME280;7737;51.578;7.268;2022-12-18T01:41:00;102477.31;;;-8.95;100.00
15272;BME280;7737;51.578;7.268;2022-12-18T01:43:44;102470.75;;;-9.34;100.00
15272;BME280;7737;51.578;7.268;2022-12-18T01:46:11;102470.56;;;-9.07;100.00
15272;BME280;7737;51.578;7.268;2022-12-18T01:48:38;102482.47;;;-9.24;100.00
15272;BME280;7737;51.578;7.268;2022-12-18T01:51:06;102475.00;;;-9.34;100.00
15272;BME280;7737;51.578;7.268;2022-12-18T01:53:36;102479.53;;;-9.45;100.00
15272;BME280;7737;51.578;7.268;2022-12-18T01:56:03;102462.03;;;-9.21;100.00
15272;BME280;7737;51.578;7.268;2022-12-18T01:58:34;102467.28;;;-9.34;100.00
15272;BME280;7737;51.578;7.268;2022-12-18T02:01:03;102470.66;;;-9.35;100.00
15272;BME280;7737;51.578;7.268;2022-12-18T02:03:29;102472.81;;;-9.43;100.00
15272;BME280;7737;51.578;7.268;2022-12-18T02:06:00;102469.66;;;-9.52;100.00
15272;BME280;7737;51.578;7.268;2022-12-18T02:08:36;102474.81;;;-9.52;100.00
15272;BME280;7737;51.578;7.268;2022-12-18T02:11:10;102466.66;;;-9.45;100.00
15272;BME280;7737;51.578;7.268;2022-12-18T02:13:46;102468.09;;;-9.92;100.00
15272;BME280;7737;51.578;7.268;2022-12-18T02:16:21;102464.59;;;-10.07;100.00
15272;BME280;7737;51.578;7.268;2022-12-18T02:18:55;102475.69;;;-9.66;100.00
15272;BME280;7737;51.578;7.268;2022-12-18T02:21:30;102467.06;;;-9.81;100.00
15272;BME280;7737;51.578;7.268;2022-12-18T02:24:15;102463.28;;;-9.44;100.00
15272;BME280;7737;51.578;7.268;2022-12-18T02:26:46;102458.31;;;-9.41;100.00
15272;BME280;7737;51.578;7.268;2022-12-18T02:29:16;102454.44;;;-9.91;100.00
15272;BME280;7737;51.578;7.268;2022-12-18T02:31:49;102444.47;;;-9.57;100.00
15272;BME280;7737;51.578;7.268;2022-12-18T02:34:18;102450.69;;;-9.54;100.00
15272;BME280;7737;51.578;7.268;2022-12-18T02:36:47;102447.66;;;-9.47;100.00
15272;BME280;7737;51.578;7.268;2022-12-18T02:39:15;102448.22;;;-9.38;100.00
15272;BME280;7737;51.578;7.268;2022-12-18T02:41:44;102446.06;;;-9.45;100.00
15272;BME280;7737;51.578;7.268;2022-12-18T02:44:13;102446.06;;;-9.30;100.00
15272;BME280;7737;51.578;7.268;2022-12-18T02:46:43;102448.16;;;-9.81;100.00
15272;BME280;7737;51.578;7.268;2022-12-18T02:49:22;102451.28;;;-10.00;100.00
15272;BME280;7737;51.578;7.268;2022-12-18T02:51:55;102458.16;;;-9.58;100.00
15272;BME280;7737;51.578;7.268;2022-12-18T02:54:38;102457.13;;;-9.75;100.00
15272;BME280;7737;51.578;7.268;2022-12-18T02:57:15;102462.59;;;-9.83;100.00
15272;BME280;7737;51.578;7.268;2022-12-18T02:59:49;102464.28;;;-9.99;100.00
15272;BME280;7737;51.578;7.268;2022-12-18T03:02:24;102464.78;;;-10.04;100.00
15272;BME280;7737;51.578;7.268;2022-12-18T03:04:57;102467.84;;;-9.82;100.00
15272;BME280;7737;51.578;7.268;2022-12-18T03:07:34;102468.47;;;-9.71;100.00
15272;BME280;7737;51.578;7.268;2022-12-18T03:10:06;102458.75;;;-10.05;100.00
15272;BME280;7737;51.578;7.268;2022-12-18T03:12:38;102458.47;;;-9.52;100.00
15272;BME280;7737;51.578;7.268;2022-12-18T03:15:09;102454.41;;;-9.49;100.00
15272;BME280;7737;51.578;7.268;2022-12-18T03:17:39;102462.59;;;-9.98;100.00
15272;BME280;7737;51.578;7.268;2022-12-18T03:20:10;102468.06;;;-9.50;100.00
15272;BME280;7737;51.578;7.268;2022-12-18T03:22:40;102472.94;;;-10.11;100.00
15272;BME280;7737;51.578;7.268;2022-12-18T03:25:11;102463.75;;;-9.93;100.00
15272;BME280;7737;51.578;7.268;2022-12-18T03:27:45;102455.19;;;-9.64;100.00
15272;BME280;7737;51.578;7.268;2022-12-18T03:30:14;102452.84;;;-9.32;100.00
15272;BME280;7737;51.578;7.268;2022-12-18T03:32:44;102443.25;;;-9.35;100.00
15272;BME280;7737;51.578;7.268;2022-12-18T03:35:20;102429.56;;;-9.19;100.00
15272;BME280;7737;51.578;7.268;2022-12-18T03:37:47;102421.75;;;-9.50;100.00
15272;BME280;7737;51.578;7.268;2022-12-18T03:40:14;102424.94;;;-9.24;100.00
15272;BME280;7737;51.578;7.268;2022-12-18T03:42:46;102427.94;;;-9.32;100.00
15272;BME280;7737;51.578;7.268;2022-12-18T03:45:20;102425.66;;;-9.42;100.00
15272;BME280;7737;51.578;7.268;2022-12-18T03:47:55;102428.81;;;-9.90;100.00
15272;BME280;7737;51.578;7.268;2022-12-18T03:50:30;102440.16;;;-9.86;100.00
15272;BME280;7737;51.578;7.268;2022-12-18T03:53:07;102456.31;;;-9.74;100.00
15272;BME280;7737;51.578;7.268;2022-12-18T03:55:35;102450.13;;;-9.77;100.00
15272;BME280;7737;51.578;7.268;2022-12-18T03:58:04;102457.06;;;-9.62;100.00
15272;BME280;7737;51.578;7.268;2022-12-18T04:00:33;102443.91;;;-9.81;100.00
15272;BME280;7737;51.578;7.268;2022-12-18T04:03:01;102442.34;;;-10.07;100.00
15272;BME280;7737;51.578;7.268;2022-12-18T04:05:30;102438.56;;;-9.99;100.00
15272;BME280;7737;51.578;7.268;2022-12-18T04:07:59;102443.94;;;-10.09;100.00
15272;BME280;7737;51.578;7.268;2022-12-18T04:10:26;102442.22;;;-10.08;100.00
15272;BME280;7737;51.578;7.268;2022-12-18T04:12:55;102442.22;;;-10.08;100.00
15272;BME280;7737;51.578;7.268;2022-12-18T04:15:24;102442.81;;;-9.84;100.00
15272;BME280;7737;51.578;7.268;2022-12-18T04:17:50;102441.25;;;-9.68;100.00
15272;BME280;7737;51.578;7.268;2022-12-18T04:20:17;102435.41;;;-9.65;100.00
15272;BME280;7737;51.578;7.268;2022-12-18T04:22:43;102434.00;;;-9.46;100.00
15272;BME280;7737;51.578;7.268;2022-12-18T04:25:10;102427.25;;;-9.44;100.00
15272;BME280;7737;51.578;7.268;2022-12-18T04:27:36;102430.09;;;-9.54;100.00
15272;BME280;7737;51.578;7.268;2022-12-18T04:30:04;102438.25;;;-9.75;100.00
15272;BME280;7737;51.578;7.268;2022-12-18T04:32:32;102433.63;;;-9.81;100.00
15272;BME280;7737;51.578;7.268;2022-12-18T04:34:59;102434.25;;;-9.85;100.00
15272;BME280;7737;51.578;7.268;2022-12-18T04:37:25;102435.19;;;-10.12;100.00
15272;BME280;7737;51.578;7.268;2022-12-18T04:39:52;102434.22;;;-10.14;100.00
15272;BME280;7737;51.578;7.268;2022-12-18T04:42:18;102434.44;;;-10.10;100.00
15272;BME280;7737;51.578;7.268;2022-12-18T04:44:45;102433.19;;;-10.16;100.00
15272;BME280;7737;51.578;7.268;2022-12-18T04:47:11;102436.88;;;-9.98;100.00
15272;BME280;7737;51.578;7.268;2022-12-18T04:49:39;102438.25;;;-10.03;100.00
15272;BME280;7737;51.578;7.268;2022-12-18T04:52:06;102437.00;;;-10.10;100.00
15272;BME280;7737;51.578;7.268;2022-12-18T04:54:32;102443.84;;;-10.25;100.00
15272;BME280;7737;51.578;7.268;2022-12-18T04:56:59;102437.34;;;-10.33;100.00
15272;BME280;7737;51.578;7.268;2022-12-18T04:59:26;102431.06;;;-10.23;100.00
15272;BME280;7737;51.578;7.268;2022-12-18T05:01:52;102423.41;;;-9.94;100.00
15272;BME280;7737;51.578;7.268;2022-12-18T05:04:19;102413.03;;;-9.96;100.00
15272;BME280;7737;51.578;7.268;2022-12-18T05:06:46;102419.34;;;-9.91;100.00
15272;BME280;7737;51.578;7.268;2022-12-18T05:09:13;102417.09;;;-9.99;100.00
15272;BME280;7737;51.578;7.268;2022-12-18T05:11:39;102407.19;;;-9.93;100.00
15272;BME280;7737;51.578;7.268;2022-12-18T05:14:06;102398.91;;;-10.17;100.00
15272;BME280;7737;51.578;7.268;2022-12-18T05:16:32;102403.44;;;-10.13;100.00
15272;BME280;7737;51.578;7.268;2022-12-18T05:18:59;102402.81;;;-9.94;100.00
15272;BME280;7737;51.578;7.268;2022-12-18T05:21:25;102402.75;;;-9.81;100.00
15272;BME280;7737;51.578;7.268;2022-12-18T05:23:53;102398.94;;;-9.73;100.00
15272;BME280;7737;51.578;7.268;2022-12-18T05:26:19;102394.16;;;-9.67;100.00
15272;BME280;7737;51.578;7.268;2022-12-18T05:28:46;102401.03;;;-10.10;100.00
15272;BME280;7737;51.578;7.268;2022-12-18T05:31:13;102392.06;;;-10.16;100.00
15272;BME280;7737;51.578;7.268;2022-12-18T05:33:40;102389.78;;;-10.12;100.00
15272;BME280;7737;51.578;7.268;2022-12-18T05:36:08;102394.88;;;-10.26;100.00
15272;BME280;7737;51.578;7.268;2022-12-18T05:38:36;102395.25;;;-10.20;100.00
15272;BME280;7737;51.578;7.268;2022-12-18T05:41:05;102392.38;;;-10.39;100.00
15272;BME280;7737;51.578;7.268;2022-12-18T05:43:33;102398.63;;;-10.21;100.00
15272;BME280;7737;51.578;7.268;2022-12-18T05:46:03;102396.78;;;-10.09;100.00
15272;BME280;7737;51.578;7.268;2022-12-18T05:48:30;102401.66;;;-9.99;100.00
15272;BME280;7737;51.578;7.268;2022-12-18T05:51:04;102416.81;;;-10.04;100.00
15272;BME280;7737;51.578;7.268;2022-12-18T05:53:31;102420.63;;;-9.97;100.00
15272;BME280;7737;51.578;7.268;2022-12-18T05:56:00;102428.25;;;-10.13;100.00
15272;BME280;7737;51.578;7.268;2022-12-18T05:58:28;102422.75;;;-10.19;100.00
15272;BME280;7737;51.578;7.268;2022-12-18T06:00:54;102421.06;;;-10.19;100.00
15272;BME280;7737;51.578;7.268;2022-12-18T06:03:20;102421.53;;;-9.97;100.00
15272;BME280;7737;51.578;7.268;2022-12-18T06:05:47;102419.38;;;-10.18;100.00
15272;BME280;7737;51.578;7.268;2022-12-18T06:08:13;102420.53;;;-10.13;100.00
15272;BME280;7737;51.578;7.268;2022-12-18T06:10:40;102427.69;;;-10.08;100.00
15272;BME280;7737;51.578;7.268;2022-12-18T06:13:07;102430.53;;;-10.03;100.00
15272;BME280;7737;51.578;7.268;2022-12-18T06:15:37;102427.00;;;-10.05;100.00
15272;BME280;7737;51.578;7.268;2022-12-18T06:18:04;102439.06;;;-10.04;100.00
15272;BME280;7737;51.578;7.268;2022-12-18T06:20:30;102445.00;;;-10.05;100.00
15272;BME280;7737;51.578;7.268;2022-12-18T06:22:57;102445.16;;;-9.74;100.00
15272;BME280;7737;51.578;7.268;2022-12-18T06:25:23;102451.19;;;-9.74;100.00
15272;BME280;7737;51.578;7.268;2022-12-18T06:27:49;102451.81;;;-9.78;100.00
15272;BME280;7737;51.578;7.268;2022-12-18T06:30:16;102454.47;;;-10.19;100.00
15272;BME280;7737;51.578;7.268;2022-12-18T06:32:44;102457.28;;;-9.86;100.00
15272;BME280;7737;51.578;7.268;2022-12-18T06:35:10;102453.84;;;-9.72;100.00
15272;BME280;7737;51.578;7.268;2022-12-18T06:37:37;102454.19;;;-9.81;100.00
15272;BME280;7737;51.578;7.268;2022-12-18T06:40:04;102447.56;;;-9.63;100.00
15272;BME280;7737;51.578;7.268;2022-12-18T06:42:31;102453.75;;;-9.88;100.00
15272;BME280;7737;51.578;7.268;2022-12-18T06:44:58;102449.09;;;-9.94;100.00
15272;BME280;7737;51.578;7.268;2022-12-18T06:47:24;102446.03;;;-9.74;100.00
15272;BME280;7737;51.578;7.268;2022-12-18T06:49:52;102446.59;;;-9.65;100.00
15272;BME280;7737;51.578;7.268;2022-12-18T06:52:18;102442.06;;;-9.69;100.00
15272;BME280;7737;51.578;7.268;2022-12-18T06:54:45;102437.09;;;-9.66;100.00
15272;BME280;7737;51.578;7.268;2022-12-18T06:57:11;102428.75;;;-10.19;100.00
15272;BME280;7737;51.578;7.268;2022-12-18T06:59:38;102432.13;;;-10.05;100.00
15272;BME280;7737;51.578;7.268;2022-12-18T07:02:04;102425.78;;;-9.97;100.00
15272;BME280;7737;51.578;7.268;2022-12-18T07:04:31;102416.22;;;-10.14;100.00
15272;BME280;7737;51.578;7.268;2022-12-18T07:06:59;102422.66;;;-10.06;100.00
15272;BME280;7737;51.578;7.268;2022-12-18T07:09:26;102416.72;;;-10.20;100.00
15272;BME280;7737;51.578;7.268;2022-12-18T07:11:52;102420.59;;;-10.26;100.00
15272;BME280;7737;51.578;7.268;2022-12-18T07:14:19;102413.91;;;-10.37;100.00
15272;BME280;7737;51.578;7.268;2022-12-18T07:16:46;102408.47;;;-10.42;100.00
15272;BME280;7737;51.578;7.268;2022-12-18T07:19:12;102409.31;;;-10.01;100.00
15272;BME280;7737;51.578;7.268;2022-12-18T07:21:39;102409.63;;;-10.09;100.00
15272;BME280;7737;51.578;7.268;2022-12-18T07:24:07;102405.91;;;-10.42;100.00
15272;BME280;7737;51.578;7.268;2022-12-18T07:26:34;102410.59;;;-10.49;100.00
15272;BME280;7737;51.578;7.268;2022-12-18T07:29:00;102410.59;;;-10.49;100.00
15272;BME280;7737;51.578;7.268;2022-12-18T07:31:27;102413.00;;;-10.25;100.00
15272;BME280;7737;51.578;7.268;2022-12-18T07:33:54;102401.63;;;-10.28;100.00
15272;BME280;7737;51.578;7.268;2022-12-18T07:36:21;102404.63;;;-10.35;100.00
15272;BME280;7737;51.578;7.268;2022-12-18T07:38:48;102400.22;;;-10.64;100.00
15272;BME280;7737;51.578;7.268;2022-12-18T07:41:16;102402.09;;;-10.48;100.00
15272;BME280;7737;51.578;7.268;2022-12-18T07:43:44;102399.69;;;-10.45;100.00
15272;BME280;7737;51.578;7.268;2022-12-18T07:46:11;102400.34;;;-10.35;100.00
15272;BME280;7737;51.578;7.268;2022-12-18T07:48:38;102398.44;;;-10.24;100.00
15272;BME280;7737;51.578;7.268;2022-12-18T07:51:06;102396.88;;;-10.22;100.00
15272;BME280;7737;51.578;7.268;2022-12-18T07:53:33;102391.03;;;-10.20;100.00
15272;BME280;7737;51.578;7.268;2022-12-18T07:56:01;102393.47;;;-10.21;100.00
15272;BME280;7737;51.578;7.268;2022-12-18T07:58:29;102398.03;;;-10.17;100.00
15272;BME280;7737;51.578;7.268;2022-12-18T08:01:02;102402.75;;;-9.96;100.00
15272;BME280;7737;51.578;7.268;2022-12-18T08:03:29;102405.69;;;-9.60;100.00
15272;BME280;7737;51.578;7.268;2022-12-18T08:05:58;102411.47;;;-9.64;100.00
15272;BME280;7737;51.578;7.268;2022-12-18T08:08:25;102396.75;;;-9.67;100.00
15272;BME280;7737;51.578;7.268;2022-12-18T08:10:52;102402.22;;;-9.61;100.00
15272;BME280;7737;51.578;7.268;2022-12-18T08:13:18;102405.34;;;-9.37;100.00
15272;BME280;7737;51.578;7.268;2022-12-18T08:15:46;102401.59;;;-9.27;100.00
15272;BME280;7737;51.578;7.268;2022-12-18T08:18:13;102401.13;;;-9.20;100.00
15272;BME280;7737;51.578;7.268;2022-12-18T08:20:39;102391.38;;;-9.11;100.00
15272;BME280;7737;51.578;7.268;2022-12-18T08:23:09;102389.59;;;-9.12;100.00
15272;BME280;7737;51.578;7.268;2022-12-18T08:25:35;102376.47;;;-9.17;100.00
15272;BME280;7737;51.578;7.268;2022-12-18T08:28:02;102376.81;;;-8.80;100.00
15272;BME280;7737;51.578;7.268;2022-12-18T08:30:28;102357.97;;;-8.79;100.00
15272;BME280;7737;51.578;7.268;2022-12-18T08:32:56;102352.00;;;-8.78;100.00
15272;BME280;7737;51.578;7.268;2022-12-18T08:35:23;102357.84;;;-8.66;100.00
15272;BME280;7737;51.578;7.268;2022-12-18T08:37:49;102347.84;;;-8.60;100.00
15272;BME280;7737;51.578;7.268;2022-12-18T08:40:16;102349.13;;;-8.52;100.00
15272;BME280;7737;51.578;7.268;2022-12-18T08:42:42;102341.72;;;-8.30;100.00
15272;BME280;7737;51.578;7.268;2022-12-18T08:45:27;102338.28;;;-8.13;100.00
15272;BME280;7737;51.578;7.268;2022-12-18T08:47:55;102326.25;;;-7.96;100.00
15272;BME280;7737;51.578;7.268;2022-12-18T08:50:21;102326.72;;;-7.87;100.00
15272;BME280;7737;51.578;7.268;2022-12-18T08:52:48;102323.22;;;-7.71;100.00
15272;BME280;7737;51.578;7.268;2022-12-18T08:55:14;102331.03;;;-7.70;100.00
15272;BME280;7737;51.578;7.268;2022-12-18T08:57:41;102338.13;;;-7.48;100.00
15272;BME280;7737;51.578;7.268;2022-12-18T09:00:08;102335.13;;;-7.39;100.00
15272;BME280;7737;51.578;7.268;2022-12-18T09:02:35;102338.78;;;-7.17;100.00
15272;BME280;7737;51.578;7.268;2022-12-18T09:05:04;102329.06;;;-7.05;100.00
15272;BME280;7737;51.578;7.268;2022-12-18T09:07:31;102320.13;;;-7.11;100.00
15272;BME280;7737;51.578;7.268;2022-12-18T09:09:57;102313.91;;;-6.97;100.00
15272;BME280;7737;51.578;7.268;2022-12-18T09:12:23;102311.22;;;-6.81;100.00
15272;BME280;7737;51.578;7.268;2022-12-18T09:14:50;102314.16;;;-6.73;100.00
15272;BME280;7737;51.578;7.268;2022-12-18T09:17:17;102314.31;;;-6.51;100.00
15272;BME280;7737;51.578;7.268;2022-12-18T09:19:43;102307.69;;;-6.45;100.00
15272;BME280;7737;51.578;7.268;2022-12-18T09:22:11;102293.81;;;-6.47;100.00
15272;BME280;7737;51.578;7.268;2022-12-18T09:24:37;102285.00;;;-6.12;100.00
15272;BME280;7737;51.578;7.268;2022-12-18T09:27:04;102278.56;;;-5.80;100.00
15272;BME280;7737;51.578;7.268;2022-12-18T09:29:32;102282.91;;;-5.79;100.00
15272;BME280;7737;51.578;7.268;2022-12-18T09:31:58;102298.88;;;-5.91;100.00
15272;BME280;7737;51.578;7.268;2022-12-18T09:34:25;102294.91;;;-5.61;100.00
15272;BME280;7737;51.578;7.268;2022-12-18T09:36:51;102286.06;;;-5.66;100.00
15272;BME280;7737;51.578;7.268;2022-12-18T09:39:19;102268.63;;;-5.49;100.00
15272;BME280;7737;51.578;7.268;2022-12-18T09:41:47;102279.41;;;-5.38;100.00
15272;BME280;7737;51.578;7.268;2022-12-18T09:44:23;102277.16;;;-5.29;100.00
15272;BME280;7737;51.578;7.268;2022-12-18T09:47:03;102281.56;;;-5.06;100.00
15272;BME280;7737;51.578;7.268;2022-12-18T09:49:34;102283.56;;;-4.99;100.00
15272;BME280;7737;51.578;7.268;2022-12-18T09:52:04;102278.25;;;-5.02;100.00
15272;BME280;7737;51.578;7.268;2022-12-18T09:54:35;102286.25;;;-4.74;100.00
15272;BME280;7737;51.578;7.268;2022-12-18T09:57:03;102292.94;;;-4.57;100.00
15272;BME280;7737;51.578;7.268;2022-12-18T09:59:32;102289.03;;;-4.46;100.00
15272;BME280;7737;51.578;7.268;2022-12-18T10:02:00;102288.31;;;-4.42;100.00
15272;BME280;7737;51.578;7.268;2022-12-18T10:04:34;102289.69;;;-4.27;100.00
15272;BME280;7737;51.578;7.268;2022-12-18T10:07:05;102289.91;;;-4.21;100.00
15272;BME280;7737;51.578;7.268;2022-12-18T10:09:43;102277.13;;;-4.15;100.00
15272;BME280;7737;51.578;7.268;2022-12-18T10:12:18;102277.06;;;-4.18;100.00
15272;BME280;7737;51.578;7.268;2022-12-18T10:14:51;102274.00;;;-4.31;100.00
15272;BME280;7737;51.578;7.268;2022-12-18T10:17:26;102258.34;;;-3.83;100.00
15272;BME280;7737;51.578;7.268;2022-12-18T10:19:57;102254.72;;;-3.63;100.00
15272;BME280;7737;51.578;7.268;2022-12-18T10:22:41;102246.59;;;-3.45;100.00
15272;BME280;7737;51.578;7.268;2022-12-18T10:25:19;102241.28;;;-3.50;100.00
15272;BME280;7737;51.578;7.268;2022-12-18T10:27:47;102235.53;;;-3.40;100.00
15272;BME280;7737;51.578;7.268;2022-12-18T10:30:15;102230.41;;;-3.37;100.00
15272;BME280;7737;51.578;7.268;2022-12-18T10:32:42;102223.44;;;-3.38;100.00
15272;BME280;7737;51.578;7.268;2022-12-18T10:35:16;102221.06;;;-3.30;100.00
15272;BME280;7737;51.578;7.268;2022-12-18T10:38:00;102215.09;;;-3.28;100.00
15272;BME280;7737;51.578;7.268;2022-12-18T10:40:28;102204.88;;;-3.22;100.00
15272;BME280;7737;51.578;7.268;2022-12-18T10:43:04;102197.44;;;-3.10;100.00
15272;BME280;7737;51.578;7.268;2022-12-18T10:45:31;102190.81;;;-2.98;100.00
15272;BME280;7737;51.578;7.268;2022-12-18T10:47:58;102183.31;;;-2.89;100.00
15272;BME280;7737;51.578;7.268;2022-12-18T10:50:29;102185.28;;;-2.81;100.00
15272;BME280;7737;51.578;7.268;2022-12-18T10:52:58;102190.56;;;-2.78;100.00
15272;BME280;7737;51.578;7.268;2022-12-18T10:55:30;102188.09;;;-2.73;100.00
15272;BME280;7737;51.578;7.268;2022-12-18T10:58:13;102184.13;;;-2.59;100.00
15272;BME280;7737;51.578;7.268;2022-12-18T11:00:43;102188.47;;;-2.60;100.00
15272;BME280;7737;51.578;7.268;2022-12-18T11:03:30;102186.16;;;-2.49;100.00
15272;BME280;7737;51.578;7.268;2022-12-18T11:06:05;102172.69;;;-2.33;100.00
15272;BME280;7737;51.578;7.268;2022-12-18T11:08:33;102157.94;;;-2.34;100.00
15272;BME280;7737;51.578;7.268;2022-12-18T11:11:01;102160.00;;;-2.21;100.00
15272;BME280;7737;51.578;7.268;2022-12-18T11:13:29;102164.38;;;-2.20;100.00
15272;BME280;7737;51.578;7.268;2022-12-18T11:15:57;102159.22;;;-2.17;100.00
15272;BME280;7737;51.578;7.268;2022-12-18T11:18:26;102152.41;;;-2.12;100.00
15272;BME280;7737;51.578;7.268;2022-12-18T11:20:55;102155.31;;;-2.00;100.00
15272;BME280;7737;51.578;7.268;2022-12-18T11:23:23;102145.81;;;-1.98;100.00
15272;BME280;7737;51.578;7.268;2022-12-18T11:25:55;102144.81;;;-2.04;100.00
15272;BME280;7737;51.578;7.268;2022-12-18T11:28:34;102138.63;;;-2.08;100.00
15272;BME280;7737;51.578;7.268;2022-12-18T11:31:23;102137.25;;;-1.94;100.00
15272;BME280;7737;51.578;7.268;2022-12-18T11:33:56;102129.72;;;-1.80;100.00
15272;BME280;7737;51.578;7.268;2022-12-18T11:36:31;102135.19;;;-1.69;100.00
15272;BME280;7737;51.578;7.268;2022-12-18T11:39:02;102127.31;;;-1.72;100.00
15272;BME280;7737;51.578;7.268;2022-12-18T11:41:34;102115.28;;;-1.67;100.00
15272;BME280;7737;51.578;7.268;2022-12-18T11:44:27;102104.03;;;-1.65;100.00
15272;BME280;7737;51.578;7.268;2022-12-18T11:46:58;102103.06;;;-1.68;100.00
15272;BME280;7737;51.578;7.268;2022-12-18T11:49:32;102093.59;;;-1.65;100.00
15272;BME280;7737;51.578;7.268;2022-12-18T11:52:04;102094.50;;;-1.64;100.00
15272;BME280;7737;51.578;7.268;2022-12-18T11:54:35;102088.63;;;-1.53;100.00
15272;BME280;7737;51.578;7.268;2022-12-18T11:57:08;102077.53;;;-1.44;100.00
15272;BME280;7737;51.578;7.268;2022-12-18T11:59:49;102082.81;;;-1.41;100.00
15272;BME280;7737;51.578;7.268;2022-12-18T12:02:33;102072.47;;;-1.38;100.00
15272;BME280;7737;51.578;7.268;2022-12-18T12:05:26;102071.78;;;-1.28;100.00
15272;BME280;7737;51.578;7.268;2022-12-18T12:07:58;102069.31;;;-1.22;100.00
15272;BME280;7737;51.578;7.268;2022-12-18T12:10:37;102071.06;;;-1.21;100.00
15272;BME280;7737;51.578;7.268;2022-12-18T12:13:18;102071.94;;;-1.19;100.00
15272;BME280;7737;51.578;7.268;2022-12-18T12:15:58;102071.13;;;-1.18;100.00
15272;BME280;7737;51.578;7.268;2022-12-18T12:18:33;102073.84;;;-1.12;100.00
15272;BME280;7737;51.578;7.268;2022-12-18T12:21:07;102073.13;;;-1.05;100.00
15272;BME280;7737;51.578;7.268;2022-12-18T12:23:41;102060.91;;;-1.06;100.00
15272;BME280;7737;51.578;7.268;2022-12-18T12:26:14;102052.25;;;-1.05;100.00
15272;BME280;7737;51.578;7.268;2022-12-18T12:28:55;102055.88;;;-0.97;100.00
15272;BME280;7737;51.578;7.268;2022-12-18T12:31:40;102054.28;;;-0.89;100.00
15272;BME280;7737;51.578;7.268;2022-12-18T12:34:16;102049.06;;;-0.89;100.00
15272;BME280;7737;51.578;7.268;2022-12-18T12:36:55;102054.34;;;-0.86;100.00
15272;BME280;7737;51.578;7.268;2022-12-18T12:39:29;102043.16;;;-0.79;100.00
15272;BME280;7737;51.578;7.268;2022-12-18T12:41:57;102039.00;;;-0.68;100.00
15272;BME280;7737;51.578;7.268;2022-12-18T12:44:43;102034.59;;;-0.72;100.00
15272;BME280;7737;51.578;7.268;2022-12-18T12:47:14;102023.28;;;-0.72;100.00
15272;BME280;7737;51.578;7.268;2022-12-18T12:49:42;102023.41;;;-0.65;100.00
15272;BME280;7737;51.578;7.268;2022-12-18T12:52:16;102027.59;;;-0.73;100.00
15272;BME280;7737;51.578;7.268;2022-12-18T12:54:45;102037.25;;;-0.69;100.00
15272;BME280;7737;51.578;7.268;2022-12-18T12:57:15;102033.91;;;-0.62;100.00
15272;BME280;7737;51.578;7.268;2022-12-18T12:59:47;102028.69;;;-0.62;100.00